Time;durP1;ratioP1;P1;durP2;ratioP2;P2;SDS_P1;SDS_P2;PMS_P1;PMS_P2;Temp;Humidity;BMP_temperature;BMP_pressure;BME280_temperature;BME280_humidity;BME280_pressure;Samples;Min_cycle;Max_cycle;Signal;HPM_P1;HPM_P2
2022/11/23 00:01:37;;;;;;;19.93;12.40;;;2.10;99.90;;;;;;4978615;28;20426;-85
2022/11/23 00:04:06;;;;;;;24.97;13.93;;;2.20;99.90;;;;;;4996505;28;20182;-83
2022/11/23 00:06:32;;;;;;;13.87;9.37;;;2.10;99.90;;;;;;4996071;28;20182;-84
2022/11/23 00:08:58;;;;;;;18.40;11.30;;;2.10;99.90;;;;;;5011281;28;20410;-87
2022/11/23 00:11:25;;;;;;;24.17;11.43;;;2.10;99.90;;;;;;5005863;28;20414;-84
2022/11/23 00:13:51;;;;;;;21.40;12.47;;;2.10;99.90;;;;;;4990462;28;20236;-83
2022/11/23 00:16:20;;;;;;;21.80;12.63;;;2.10;99.90;;;;;;5006316;28;20430;-86
2022/11/23 00:18:47;;;;;;;23.63;12.27;;;2.10;99.90;;;;;;4978541;28;20538;-85
2022/11/23 00:21:15;;;;;;;20.93;12.47;;;2.10;99.90;;;;;;4995933;28;20482;-83
2022/11/23 00:23:41;;;;;;;21.87;10.83;;;2.10;99.90;;;;;;4995587;28;20422;-86
2022/11/23 00:26:07;;;;;;;16.83;10.30;;;2.10;99.90;;;;;;4995717;28;20983;-84
2022/11/23 00:28:38;;;;;;;22.07;12.17;;;2.10;99.90;;;;;;4995493;28;20466;-84
2022/11/23 00:31:05;;;;;;;20.87;11.97;;;2.10;99.90;;;;;;4995691;28;20760;-85
2022/11/23 00:33:31;;;;;;;25.03;12.13;;;2.20;99.90;;;;;;4977986;28;20415;-86
2022/11/23 00:36:04;;;;;;;21.17;10.93;;;2.20;99.90;;;;;;4977868;28;20469;-85
2022/11/23 00:38:30;;;;;;;22.13;11.90;;;2.20;99.90;;;;;;4995192;28;20260;-84
2022/11/23 00:41:11;;;;;;;18.57;10.33;;;2.20;99.90;;;;;;4995475;28;20566;-87
2022/11/23 00:43:36;;;;;;;18.77;9.47;;;2.20;99.90;;;;;;4977890;28;20433;-85
2022/11/23 00:46:12;;;;;;;27.20;12.30;;;2.20;99.90;;;;;;4994818;28;20839;-86
2022/11/23 00:48:37;;;;;;;18.27;10.30;;;2.20;99.90;;;;;;4995492;28;20173;-85
2022/11/23 00:51:06;;;;;;;15.57;10.33;;;2.20;99.90;;;;;;4995286;28;20414;-86
2022/11/23 00:53:32;;;;;;;24.20;12.67;;;2.20;99.90;;;;;;4994646;28;20187;-85
2022/11/23 00:56:00;;;;;;;20.77;12.07;;;2.20;99.90;;;;;;4977851;28;20966;-85
2022/11/23 00:58:26;;;;;;;24.00;12.10;;;2.20;99.90;;;;;;4976668;28;20171;-85
2022/11/23 01:01:04;;;;;;;16.27;9.77;;;2.20;99.90;;;;;;4980158;28;21012;-85
2022/11/23 01:03:30;;;;;;;19.03;8.80;;;2.20;99.90;;;;;;4997100;28;20230;-84
2022/11/23 01:06:03;;;;;;;24.20;13.13;;;2.20;99.90;;;;;;4996983;28;20507;-84
2022/11/23 01:08:35;;;;;;;26.37;12.07;;;2.30;99.90;;;;;;4996882;28;20416;-84
2022/11/23 01:11:03;;;;;;;18.73;11.07;;;2.30;99.90;;;;;;4997570;28;20424;-92
2022/11/23 01:13:30;;;;;;;16.87;7.90;;;2.30;99.90;;;;;;4997737;28;20455;-85
2022/11/23 01:15:55;;;;;;;18.97;11.93;;;2.30;99.90;;;;;;5015116;28;20741;-89
2022/11/23 01:18:21;;;;;;;18.13;10.10;;;2.30;99.90;;;;;;5015860;28;20516;-86
2022/11/23 01:20:46;;;;;;;23.93;12.40;;;2.30;99.90;;;;;;4997831;28;20261;-87
2022/11/23 01:23:12;;;;;;;22.03;10.60;;;2.30;99.90;;;;;;4997009;28;20185;-85
2022/11/23 01:25:40;;;;;;;16.23;10.23;;;2.30;99.90;;;;;;5015461;28;20211;-92
2022/11/23 01:28:08;;;;;;;18.57;10.17;;;2.30;99.90;;;;;;5015072;28;20251;-87
2022/11/23 01:30:35;;;;;;;21.50;10.63;;;2.40;99.90;;;;;;4998293;28;20506;-85
2022/11/23 01:33:03;;;;;;;21.30;10.17;;;2.40;99.90;;;;;;5015211;28;20866;-85
2022/11/23 01:35:29;;;;;;;14.73;10.50;;;2.40;99.90;;;;;;4991860;28;20521;-85
2022/11/23 01:37:55;;;;;;;23.00;11.33;;;2.40;99.90;;;;;;4996703;28;20949;-84
2022/11/23 01:40:21;;;;;;;20.87;10.60;;;2.40;99.90;;;;;;4997023;28;20222;-87
2022/11/23 01:42:59;;;;;;;16.00;10.17;;;2.40;99.90;;;;;;4997188;28;20662;-90
2022/11/23 01:45:42;;;;;;;18.30;11.50;;;2.40;99.90;;;;;;4997352;28;20477;-85
2022/11/23 01:48:18;;;;;;;22.23;10.70;;;2.40;99.90;;;;;;4997502;28;20451;-90
2022/11/23 01:50:47;;;;;;;19.60;10.23;;;2.40;99.90;;;;;;5014969;28;20923;-86
2022/11/23 01:53:13;;;;;;;20.10;11.90;;;2.40;99.90;;;;;;4997287;28;20414;-91
2022/11/23 01:55:39;;;;;;;21.63;9.80;;;2.50;99.90;;;;;;5014825;28;20426;-90
2022/11/23 01:58:08;;;;;;;15.43;10.20;;;2.50;99.90;;;;;;4997127;28;20423;-91
2022/11/23 02:00:34;;;;;;;16.27;10.07;;;2.60;99.90;;;;;;5014890;28;20816;-90
2022/11/23 02:03:00;;;;;;;19.00;11.10;;;2.60;99.90;;;;;;4997183;28;20417;-91
2022/11/23 02:05:37;;;;;;;14.73;10.00;;;2.60;99.90;;;;;;5014511;28;20220;-90
2022/11/23 02:08:04;;;;;;;17.00;11.37;;;2.60;99.90;;;;;;4996836;28;20437;-89
2022/11/23 02:10:30;;;;;;;18.27;8.90;;;2.60;99.90;;;;;;5014710;28;20414;-91
2022/11/23 02:13:00;;;;;;;16.87;9.80;;;2.60;99.90;;;;;;5014283;28;20414;-90
2022/11/23 02:15:26;;;;;;;18.50;10.63;;;2.60;99.90;;;;;;4997201;28;20410;-90
2022/11/23 02:17:51;;;;;;;16.27;8.67;;;2.60;99.90;;;;;;4997130;28;20414;-91
2022/11/23 02:20:17;;;;;;;17.37;9.40;;;2.70;99.90;;;;;;4996593;28;20685;-88
2022/11/23 02:23:09;;;;;;;25.20;10.83;;;2.60;99.90;;;;;;4996354;28;20175;-89
2022/11/23 02:25:43;;;;;;;14.47;10.23;;;2.70;99.90;;;;;;5014053;28;20461;-87
2022/11/23 02:28:12;;;;;;;17.13;10.70;;;2.70;99.90;;;;;;5014124;28;20456;-90
2022/11/23 02:30:38;;;;;;;14.10;10.10;;;2.70;99.90;;;;;;5014102;28;20405;-88
2022/11/23 02:33:05;;;;;;;22.17;11.80;;;2.70;99.90;;;;;;5014001;28;20421;-89
2022/11/23 02:35:30;;;;;;;19.33;9.90;;;2.80;99.90;;;;;;5014119;28;20406;-87
2022/11/23 02:37:57;;;;;;;22.60;10.90;;;2.70;99.90;;;;;;5013378;28;20427;-87
2022/11/23 02:40:31;;;;;;;15.47;9.43;;;2.80;99.90;;;;;;4996195;28;20421;-87
2022/11/23 02:42:58;;;;;;;15.00;9.50;;;2.80;99.90;;;;;;5013762;28;20435;-88
2022/11/23 02:45:30;;;;;;;16.77;10.60;;;2.80;99.90;;;;;;4995919;28;20504;-89
2022/11/23 02:47:55;;;;;;;17.13;8.30;;;2.80;99.90;;;;;;5013755;28;20413;-89
2022/11/23 02:50:21;;;;;;;16.30;8.97;;;2.80;99.90;;;;;;5013594;28;20424;-88
2022/11/23 02:52:46;;;;;;;13.73;10.10;;;2.80;99.90;;;;;;4995792;28;20182;-89
2022/11/23 02:55:12;;;;;;;18.43;10.53;;;2.80;99.90;;;;;;5013482;28;20183;-87
2022/11/23 02:57:37;;;;;;;17.90;9.00;;;2.90;99.90;;;;;;4995994;28;20186;-87
2022/11/23 03:00:04;;;;;;;13.00;8.23;;;2.90;99.90;;;;;;4996233;28;20188;-90
2022/11/23 03:02:29;;;;;;;15.07;9.00;;;3.00;99.90;;;;;;4996106;28;20179;-86
2022/11/23 03:04:54;;;;;;;18.00;9.50;;;3.00;99.90;;;;;;4996348;28;20824;-89
2022/11/23 03:07:20;;;;;;;14.50;9.37;;;3.10;99.90;;;;;;5013671;28;20174;-88
2022/11/23 03:09:45;;;;;;;18.50;10.80;;;3.10;99.90;;;;;;4998625;28;20262;-89
2022/11/23 03:12:11;;;;;;;19.53;9.77;;;3.10;99.90;;;;;;5000179;28;20178;-88
2022/11/23 03:14:37;;;;;;;17.50;9.97;;;3.10;99.90;;;;;;5017398;28;20636;-86
2022/11/23 03:17:04;;;;;;;19.80;9.87;;;3.10;99.90;;;;;;5017271;28;20163;-87
2022/11/23 03:19:29;;;;;;;16.97;9.50;;;3.10;99.90;;;;;;5017193;28;20770;-87
2022/11/23 03:21:55;;;;;;;13.60;8.40;;;3.20;99.90;;;;;;5017127;28;20406;-87
2022/11/23 03:24:20;;;;;;;15.37;9.27;;;3.20;99.90;;;;;;4998932;28;20352;-86
2022/11/23 03:26:46;;;;;;;16.77;9.20;;;3.20;99.90;;;;;;5017171;28;20775;-88
2022/11/23 03:29:11;;;;;;;17.97;9.73;;;3.20;99.90;;;;;;5017077;28;20226;-87
2022/11/23 03:31:37;;;;;;;13.30;8.50;;;3.20;99.90;;;;;;5017110;28;20181;-87
2022/11/23 03:34:02;;;;;;;15.80;9.07;;;3.20;99.90;;;;;;5017125;28;20164;-87
2022/11/23 03:36:28;;;;;;;13.00;8.10;;;3.20;99.90;;;;;;4999248;28;20175;-87
2022/11/23 03:38:53;;;;;;;13.60;8.97;;;3.20;99.90;;;;;;4998991;28;20191;-86
2022/11/23 03:41:19;;;;;;;11.90;8.67;;;3.20;99.90;;;;;;4999386;28;20213;-88
2022/11/23 03:43:44;;;;;;;14.13;10.40;;;3.10;99.90;;;;;;4999445;28;20502;-87
2022/11/23 03:46:10;;;;;;;16.10;9.63;;;3.20;99.90;;;;;;4999943;28;20217;-89
2022/11/23 03:48:35;;;;;;;16.93;8.80;;;3.20;99.90;;;;;;4999676;28;20180;-88
2022/11/23 03:51:01;;;;;;;14.50;8.60;;;3.20;99.90;;;;;;4999314;28;20181;-87
2022/11/23 03:53:26;;;;;;;14.20;7.47;;;3.20;99.90;;;;;;4999065;28;20179;-88
2022/11/23 03:55:55;;;;;;;19.80;9.43;;;3.20;99.90;;;;;;4999641;28;20445;-88
2022/11/23 03:58:20;;;;;;;18.97;10.00;;;3.30;99.90;;;;;;5017168;28;20180;-87
2022/11/23 04:00:46;;;;;;;18.17;10.83;;;3.30;99.90;;;;;;5017014;28;20421;-89
2022/11/23 04:03:11;;;;;;;15.83;6.90;;;3.30;99.90;;;;;;4999700;28;20171;-90
2022/11/23 04:05:36;;;;;;;14.50;8.03;;;3.20;99.90;;;;;;4999446;28;20281;-88
2022/11/23 04:08:03;;;;;;;13.30;9.37;;;3.20;99.90;;;;;;5016467;28;20174;-89
2022/11/23 04:10:28;;;;;;;15.97;9.60;;;3.20;99.90;;;;;;4999533;28;20248;-88
2022/11/23 04:12:54;;;;;;;19.43;9.27;;;3.20;99.90;;;;;;5016746;28;20422;-90
2022/11/23 04:15:19;;;;;;;14.10;8.63;;;3.20;99.90;;;;;;4999268;28;20176;-90
2022/11/23 04:17:45;;;;;;;21.40;9.70;;;3.20;99.90;;;;;;5016464;28;20175;-89
2022/11/23 04:20:11;;;;;;;16.47;8.60;;;3.20;99.90;;;;;;4998334;28;20418;-85
2022/11/23 04:22:37;;;;;;;20.63;9.63;;;3.20;99.90;;;;;;4998587;28;20182;-86
2022/11/23 04:25:03;;;;;;;15.47;9.47;;;3.20;99.90;;;;;;5016382;28;20891;-90
2022/11/23 04:27:28;;;;;;;15.70;10.33;;;3.20;99.90;;;;;;4998584;28;20243;-86
2022/11/23 04:29:54;;;;;;;13.10;8.10;;;3.20;99.90;;;;;;5016242;28;20655;-88
2022/11/23 04:32:19;;;;;;;16.07;9.63;;;3.20;99.90;;;;;;5016338;28;20209;-88
2022/11/23 04:34:45;;;;;;;12.93;8.30;;;3.20;99.90;;;;;;5016257;28;20221;-89
2022/11/23 04:37:10;;;;;;;15.27;9.10;;;3.30;99.90;;;;;;5016100;28;20537;-87
2022/11/23 04:39:36;;;;;;;15.73;9.43;;;3.30;99.90;;;;;;5015879;28;20244;-87
2022/11/23 04:42:02;;;;;;;13.53;8.60;;;3.30;99.90;;;;;;5015997;28;20172;-87
2022/11/23 04:44:27;;;;;;;12.53;8.10;;;3.30;99.90;;;;;;5015726;28;20302;-88
2022/11/23 04:46:56;;;;;;;19.80;8.40;;;3.30;99.90;;;;;;5015704;28;20694;-88
2022/11/23 04:49:21;;;;;;;17.47;9.77;;;3.30;99.90;;;;;;4998331;28;20190;-88
2022/11/23 04:51:46;;;;;;;18.63;9.80;;;3.20;99.90;;;;;;5015835;28;20423;-88
2022/11/23 04:54:12;;;;;;;13.57;8.53;;;3.20;99.90;;;;;;5015614;28;20163;-90
2022/11/23 04:56:37;;;;;;;17.10;9.60;;;3.20;99.90;;;;;;4998432;28;20173;-86
2022/11/23 04:59:06;;;;;;;15.17;8.00;;;3.20;99.90;;;;;;5016009;28;20176;-88
2022/11/23 05:01:32;;;;;;;14.07;7.77;;;3.20;99.90;;;;;;5015731;28;20175;-86
2022/11/23 05:03:57;;;;;;;15.03;8.50;;;3.30;99.90;;;;;;5015605;28;20410;-90
2022/11/23 05:06:25;;;;;;;13.10;7.83;;;3.30;99.90;;;;;;4998032;28;20212;-85
2022/11/23 05:08:51;;;;;;;17.67;7.77;;;3.30;99.90;;;;;;4997729;28;20175;-88
2022/11/23 05:11:16;;;;;;;19.10;8.23;;;3.30;99.90;;;;;;4998076;28;20418;-89
2022/11/23 05:13:42;;;;;;;16.37;9.57;;;3.30;99.90;;;;;;5015646;28;20171;-88
2022/11/23 05:16:07;;;;;;;14.10;7.47;;;3.30;99.90;;;;;;4998267;28;20190;-89
2022/11/23 05:18:33;;;;;;;14.63;7.40;;;3.30;99.90;;;;;;4997961;28;20198;-89
2022/11/23 05:20:58;;;;;;;13.83;9.10;;;3.40;99.90;;;;;;4998058;28;20185;-89
2022/11/23 05:23:24;;;;;;;12.77;8.20;;;3.40;99.90;;;;;;4997519;28;20171;-89
2022/11/23 05:25:49;;;;;;;11.40;7.37;;;3.40;99.90;;;;;;5015092;28;20235;-87
2022/11/23 05:28:18;;;;;;;19.30;8.80;;;3.40;99.90;;;;;;4997406;28;20227;-88
2022/11/23 05:30:44;;;;;;;13.60;9.00;;;3.40;99.90;;;;;;4997014;28;20233;-87
2022/11/23 05:33:09;;;;;;;10.47;7.10;;;3.40;99.90;;;;;;4996786;28;20937;-88
2022/11/23 05:35:35;;;;;;;11.13;6.07;;;3.40;99.90;;;;;;4997306;28;20175;-85
2022/11/23 05:38:01;;;;;;;9.80;7.00;;;3.40;99.90;;;;;;4996862;28;20167;-88
2022/11/23 05:40:26;;;;;;;15.00;8.47;;;3.40;99.90;;;;;;4997030;28;20183;-89
2022/11/23 05:42:56;;;;;;;13.00;7.23;;;3.40;99.90;;;;;;4997083;28;20175;-88
2022/11/23 05:45:22;;;;;;;12.00;8.60;;;3.50;99.90;;;;;;5014622;28;20209;-89
2022/11/23 05:47:50;;;;;;;14.40;9.30;;;3.50;99.90;;;;;;5014560;28;20410;-90
2022/11/23 05:50:15;;;;;;;9.13;6.07;;;3.50;99.90;;;;;;5014760;28;20498;-88
2022/11/23 05:52:41;;;;;;;11.50;6.00;;;3.50;99.90;;;;;;5014409;28;20913;-92
2022/11/23 05:55:06;;;;;;;11.53;6.77;;;3.50;99.90;;;;;;4997117;28;20171;-89
2022/11/23 05:57:32;;;;;;;12.83;6.20;;;3.50;99.90;;;;;;5014269;28;20175;-88
2022/11/23 05:59:57;;;;;;;18.90;9.57;;;3.50;99.90;;;;;;5014370;28;20171;-84
2022/11/23 06:02:23;;;;;;;13.63;6.33;;;3.50;99.90;;;;;;5014294;28;20167;-88
2022/11/23 06:04:48;;;;;;;11.17;7.27;;;3.50;99.90;;;;;;5014066;28;20282;-84
2022/11/23 06:07:14;;;;;;;12.70;7.40;;;3.50;99.90;;;;;;4996311;28;20210;-87
2022/11/23 06:09:39;;;;;;;18.90;7.13;;;3.50;99.90;;;;;;5014068;28;20206;-87
2022/11/23 06:12:05;;;;;;;11.00;8.13;;;3.50;99.90;;;;;;4996227;28;20178;-88
2022/11/23 06:14:30;;;;;;;12.63;8.43;;;3.50;99.90;;;;;;5013732;28;20171;-85
2022/11/23 06:16:56;;;;;;;10.33;4.80;;;3.60;99.90;;;;;;5013797;28;20163;-84
2022/11/23 06:19:21;;;;;;;13.40;8.50;;;3.60;99.90;;;;;;5013585;28;20237;-86
2022/11/23 06:21:47;;;;;;;11.03;8.30;;;3.60;99.90;;;;;;4996024;28;20194;-87
2022/11/23 06:24:13;;;;;;;10.07;5.90;;;3.50;99.90;;;;;;5013258;28;20171;-87
2022/11/23 06:26:38;;;;;;;11.13;7.30;;;3.50;99.90;;;;;;5014782;28;20225;-86
2022/11/23 06:29:04;;;;;;;16.53;9.13;;;3.60;99.90;;;;;;5012103;28;20240;-84
2022/11/23 06:31:29;;;;;;;10.80;7.23;;;3.60;99.90;;;;;;5013271;28;20186;-84
2022/11/23 06:33:55;;;;;;;11.80;7.40;;;3.50;99.90;;;;;;5013514;28;20193;-87
2022/11/23 06:36:20;;;;;;;9.67;6.67;;;3.50;99.90;;;;;;5013468;28;20201;-87
2022/11/23 06:38:46;;;;;;;11.60;7.37;;;3.60;99.90;;;;;;4995607;28;20201;-87
2022/11/23 06:41:11;;;;;;;10.93;6.97;;;3.50;99.90;;;;;;4996009;28;20234;-90
2022/11/23 06:43:40;;;;;;;15.47;7.70;;;3.50;99.90;;;;;;4995709;28;20272;-88
2022/11/23 06:46:06;;;;;;;12.47;7.13;;;3.50;99.90;;;;;;4995754;28;20218;-88
2022/11/23 06:48:32;;;;;;;15.57;6.93;;;3.50;99.90;;;;;;5013649;28;20829;-88
2022/11/23 06:50:59;;;;;;;20.40;8.40;;;3.50;99.90;;;;;;5013936;28;20461;-89
2022/11/23 06:53:28;;;;;;;15.87;8.47;;;3.50;99.90;;;;;;5013660;28;20793;-89
2022/11/23 06:56:00;;;;;;;12.30;7.17;;;3.50;99.90;;;;;;5013695;28;20426;-89
2022/11/23 06:58:29;;;;;;;13.00;7.70;;;3.50;99.90;;;;;;5013758;28;20427;-88
2022/11/23 07:01:00;;;;;;;11.13;6.10;;;3.50;99.90;;;;;;4996174;28;20861;-87
2022/11/23 07:03:26;;;;;;;12.80;6.83;;;3.60;99.90;;;;;;5013628;28;20405;-88
2022/11/23 07:05:52;;;;;;;8.73;6.77;;;3.60;99.90;;;;;;5013723;28;20465;-87
2022/11/23 07:08:17;;;;;;;7.63;5.70;;;3.60;99.90;;;;;;5013582;28;20475;-88
2022/11/23 07:10:43;;;;;;;14.30;7.33;;;3.60;99.90;;;;;;4996278;28;20167;-89
2022/11/23 07:13:09;;;;;;;13.27;7.80;;;3.60;99.90;;;;;;5013907;28;20260;-90
2022/11/23 07:15:35;;;;;;;14.80;7.67;;;3.60;99.90;;;;;;4996333;28;20203;-89
2022/11/23 07:18:01;;;;;;;13.20;6.40;;;3.70;99.90;;;;;;5013937;28;20489;-90
2022/11/23 07:20:27;;;;;;;11.87;6.60;;;3.70;99.90;;;;;;5013974;28;20414;-90
2022/11/23 07:23:05;;;;;;;13.27;7.17;;;3.70;99.90;;;;;;4996121;28;20176;-87
2022/11/23 07:25:32;;;;;;;11.47;7.00;;;3.70;99.90;;;;;;5014077;28;20210;-89
2022/11/23 07:27:59;;;;;;;10.37;6.90;;;3.70;99.90;;;;;;5013598;28;20457;-88
2022/11/23 07:30:26;;;;;;;11.83;6.20;;;3.70;99.90;;;;;;4995495;28;20469;-88
2022/11/23 07:32:52;;;;;;;16.33;6.80;;;3.70;99.90;;;;;;4995787;28;20855;-88
2022/11/23 07:35:19;;;;;;;10.37;7.40;;;3.80;99.90;;;;;;4995816;28;20772;-88
2022/11/23 07:37:45;;;;;;;12.47;6.27;;;3.80;99.90;;;;;;4995482;28;20458;-89
2022/11/23 07:40:11;;;;;;;10.37;6.30;;;3.80;99.90;;;;;;5013463;28;20426;-87
2022/11/23 07:42:36;;;;;;;12.10;7.60;;;3.80;99.90;;;;;;5013726;28;20420;-88
2022/11/23 07:45:03;;;;;;;14.43;7.57;;;3.90;99.90;;;;;;4995555;28;21032;-88
2022/11/23 07:47:29;;;;;;;12.43;7.27;;;3.90;99.90;;;;;;5012802;28;20175;-89
2022/11/23 07:49:55;;;;;;;12.17;6.63;;;3.90;99.90;;;;;;4995705;28;20940;-88
2022/11/23 07:52:20;;;;;;;11.77;6.83;;;4.00;99.90;;;;;;5012987;28;20406;-89
2022/11/23 07:54:46;;;;;;;9.70;6.00;;;4.00;99.90;;;;;;5014348;28;20164;-88
2022/11/23 07:57:11;;;;;;;9.47;4.80;;;4.00;99.90;;;;;;4999396;28;20664;-89
2022/11/23 07:59:37;;;;;;;12.97;6.13;;;4.00;99.90;;;;;;4999161;28;20186;-88
2022/11/23 08:02:02;;;;;;;12.10;7.10;;;4.10;99.90;;;;;;5016927;28;20651;-90
2022/11/23 08:04:28;;;;;;;15.93;7.50;;;4.10;99.90;;;;;;5016908;28;20210;-89
2022/11/23 08:06:54;;;;;;;12.20;7.07;;;4.10;99.90;;;;;;5018886;28;20171;-88
2022/11/23 08:09:20;;;;;;;13.63;7.47;;;4.20;99.90;;;;;;5016810;28;20456;-87
2022/11/23 08:11:45;;;;;;;10.03;5.53;;;4.10;99.90;;;;;;4999227;28;20178;-90
2022/11/23 08:14:11;;;;;;;7.70;5.50;;;4.30;99.90;;;;;;4999691;28;20179;-93
2022/11/23 08:16:36;;;;;;;13.50;6.77;;;4.30;99.90;;;;;;4999150;28;20214;-88
2022/11/23 08:19:02;;;;;;;11.53;6.47;;;4.40;99.90;;;;;;4999006;28;20184;-89
2022/11/23 08:21:28;;;;;;;11.43;7.00;;;4.40;99.90;;;;;;4998785;28;20175;-87
2022/11/23 08:23:53;;;;;;;9.67;7.03;;;4.50;99.90;;;;;;4998416;28;20180;-88
2022/11/23 08:26:19;;;;;;;7.23;4.83;;;4.50;99.90;;;;;;4998438;28;20211;-88
2022/11/23 08:28:45;;;;;;;13.33;6.97;;;4.50;99.90;;;;;;4998320;28;20298;-89
2022/11/23 08:31:11;;;;;;;8.20;5.93;;;4.50;99.90;;;;;;5015983;28;20249;-87
2022/11/23 08:33:39;;;;;;;12.70;6.77;;;4.60;99.90;;;;;;5015955;28;20172;-87
2022/11/23 08:36:06;;;;;;;9.60;5.50;;;4.60;99.90;;;;;;4998440;28;20462;-87
2022/11/23 08:38:32;;;;;;;8.00;5.40;;;4.60;99.90;;;;;;4997977;28;20406;-87
2022/11/23 08:40:59;;;;;;;13.00;7.70;;;4.70;99.90;;;;;;5016136;28;20433;-89
2022/11/23 08:43:26;;;;;;;9.47;5.97;;;4.70;99.90;;;;;;4998262;28;20415;-86
2022/11/23 08:45:55;;;;;;;8.33;5.97;;;4.80;99.90;;;;;;4998331;28;20470;-89
2022/11/23 08:48:21;;;;;;;13.27;5.77;;;4.90;99.90;;;;;;4998546;28;20426;-87
2022/11/23 08:50:47;;;;;;;12.43;6.57;;;4.90;99.90;;;;;;4998345;28;21007;-88
2022/11/23 08:53:12;;;;;;;8.97;5.20;;;5.00;99.90;;;;;;5015721;28;20663;-88
2022/11/23 08:55:38;;;;;;;7.50;4.10;;;5.00;99.90;;;;;;4998083;28;20856;-88
2022/11/23 08:58:04;;;;;;;8.07;4.60;;;5.10;99.90;;;;;;5015786;28;20175;-89
2022/11/23 09:00:30;;;;;;;8.00;4.97;;;5.00;99.90;;;;;;5001231;28;20707;-88
2022/11/23 09:03:00;;;;;;;12.47;6.60;;;5.10;99.90;;;;;;5015959;28;20427;-88
2022/11/23 09:05:27;;;;;;;8.70;5.30;;;5.10;99.90;;;;;;4983291;28;20955;-87
2022/11/23 09:07:58;;;;;;;9.90;6.17;;;5.10;99.90;;;;;;4978123;28;20485;-88
2022/11/23 09:10:25;;;;;;;8.53;4.90;;;5.10;99.90;;;;;;4996236;28;20515;-89
2022/11/23 09:12:57;;;;;;;9.40;5.27;;;5.10;99.90;;;;;;4978183;28;20473;-88
2022/11/23 09:15:23;;;;;;;12.57;6.10;;;5.20;99.90;;;;;;4978282;28;20450;-89
2022/11/23 09:17:48;;;;;;;11.63;5.77;;;5.30;99.90;;;;;;4978114;28;20415;-87
2022/11/23 09:20:14;;;;;;;8.20;4.83;;;5.30;99.90;;;;;;4978058;28;20183;-86
2022/11/23 09:22:40;;;;;;;10.83;5.57;;;5.40;99.90;;;;;;4995154;28;20169;-87
2022/11/23 09:25:06;;;;;;;8.50;6.43;;;5.50;99.90;;;;;;4977949;28;20224;-86
2022/11/23 09:27:32;;;;;;;6.37;5.37;;;5.60;99.90;;;;;;4977566;28;20317;-88
2022/11/23 09:29:57;;;;;;;9.97;4.73;;;5.90;99.90;;;;;;4979194;28;20417;-87
2022/11/23 09:32:23;;;;;;;10.73;5.27;;;6.10;99.90;;;;;;4996902;28;20409;-89
2022/11/23 09:34:48;;;;;;;8.23;5.67;;;7.40;99.90;;;;;;4995598;28;20642;-90
2022/11/23 09:37:14;;;;;;;8.03;4.73;;;7.00;99.90;;;;;;4995419;28;20177;-91
2022/11/23 09:39:39;;;;;;;8.13;5.00;;;7.00;99.90;;;;;;4995405;28;20174;-89
2022/11/23 09:42:21;;;;;;;8.40;3.97;;;7.00;99.90;;;;;;4977816;28;20276;-88
2022/11/23 09:45:09;;;;;;;10.53;5.40;;;6.90;99.90;;;;;;4995137;28;20214;-89
2022/11/23 09:48:07;;;;;;;5.93;4.27;;;8.60;99.90;;;;;;4995148;28;20766;-89
2022/11/23 09:50:46;;;;;;;5.47;3.67;;;8.00;99.90;;;;;;4995277;28;20622;-89
2022/11/23 09:53:20;;;;;;;10.30;4.27;;;8.50;99.90;;;;;;4994689;28;20492;-86
2022/11/23 09:55:51;;;;;;;7.07;4.50;;;8.20;99.90;;;;;;4994993;28;20420;-86
2022/11/23 09:58:22;;;;;;;6.00;4.03;;;7.80;99.90;;;;;;4977688;28;20432;-91
2022/11/23 10:01:00;;;;;;;5.43;3.20;;;7.70;99.90;;;;;;4978148;28;20426;-91
2022/11/23 10:03:28;;;;;;;10.03;3.60;;;7.50;99.90;;;;;;4995470;28;20413;-89
2022/11/23 10:06:24;;;;;;;5.30;2.67;;;7.60;99.90;;;;;;4977954;28;20592;-93
2022/11/23 10:09:05;;;;;;;7.37;3.20;;;7.60;99.90;;;;;;4984787;28;20507;-89
2022/11/23 10:12:01;;;;;;;5.70;2.73;;;7.70;99.90;;;;;;4978453;28;20492;-90
2022/11/23 10:14:48;;;;;;;8.57;4.27;;;7.50;99.90;;;;;;4978810;28;20585;-93
2022/11/23 10:17:30;;;;;;;6.80;2.90;;;7.50;99.90;;;;;;4978842;28;20419;-91
2022/11/23 10:20:20;;;;;;;6.60;2.70;;;7.40;99.90;;;;;;4996567;28;20839;-94
2022/11/23 10:22:51;;;;;;;6.33;2.13;;;7.30;99.90;;;;;;4976944;28;20417;-87
2022/11/23 10:25:19;;;;;;;4.23;2.37;;;7.20;99.90;;;;;;4993827;28;20877;-86
2022/11/23 10:27:47;;;;;;;7.37;3.37;;;7.20;99.90;;;;;;4993496;28;20479;-87
2022/11/23 10:30:15;;;;;;;5.20;3.30;;;7.40;99.90;;;;;;4976364;28;20525;-87
2022/11/23 10:33:01;;;;;;;5.33;2.30;;;7.60;99.90;;;;;;4994094;28;20414;-88
2022/11/23 10:35:32;;;;;;;5.00;2.30;;;8.00;99.90;;;;;;4994337;28;20433;-88
2022/11/23 10:38:15;;;;;;;6.33;2.00;;;8.10;99.90;;;;;;4976340;28;20436;-89
2022/11/23 10:40:59;;;;;;;3.70;2.27;;;8.10;99.90;;;;;;4994293;28;20415;-91
2022/11/23 10:43:31;;;;;;;4.63;1.70;;;8.10;99.90;;;;;;4994658;28;20414;-86
2022/11/23 10:46:24;;;;;;;4.60;2.10;;;7.80;99.90;;;;;;4994269;28;20472;-90
2022/11/23 10:48:51;;;;;;;3.60;1.67;;;7.80;99.90;;;;;;4994447;28;20447;-89
2022/11/23 10:51:30;;;;;;;11.73;2.13;;;7.80;99.90;;;;;;4976925;28;20432;-88
2022/11/23 10:54:00;;;;;;;4.80;2.57;;;8.00;99.90;;;;;;4976577;28;20785;-89
2022/11/23 10:56:44;;;;;;;4.83;2.40;;;8.10;99.90;;;;;;4994133;28;20498;-88
2022/11/23 10:59:37;;;;;;;7.37;2.90;;;7.60;99.90;;;;;;4994536;28;20970;-92
2022/11/23 11:02:21;;;;;;;4.17;2.33;;;7.60;99.90;;;;;;4994404;28;20772;-90
2022/11/23 11:04:48;;;;;;;5.23;1.93;;;7.50;99.90;;;;;;4994194;28;20506;-93
2022/11/23 11:07:26;;;;;;;4.23;1.87;;;7.70;99.90;;;;;;4976962;28;20488;-91
2022/11/23 11:09:57;;;;;;;4.80;1.87;;;7.60;99.90;;;;;;4994422;28;20408;-91
2022/11/23 11:12:24;;;;;;;6.70;2.00;;;7.60;99.90;;;;;;4976855;28;20516;-92
2022/11/23 11:15:08;;;;;;;3.77;2.00;;;7.60;99.90;;;;;;4993971;28;20425;-89
2022/11/23 11:17:34;;;;;;;7.10;3.00;;;7.70;99.90;;;;;;4994293;28;20785;-88
2022/11/23 11:20:20;;;;;;;4.33;2.00;;;8.00;99.90;;;;;;4994843;28;20845;-89
2022/11/23 11:22:46;;;;;;;7.13;2.70;;;7.90;99.90;;;;;;4993095;28;20867;-88
2022/11/23 11:25:27;;;;;;;5.37;2.53;;;8.00;99.90;;;;;;4976040;28;20502;-88
2022/11/23 11:27:53;;;;;;;5.90;2.77;;;7.80;99.90;;;;;;4976259;28;20229;-88
2022/11/23 11:30:31;;;;;;;3.53;2.00;;;7.70;99.90;;;;;;4978194;28;20438;-87
2022/11/23 11:33:20;;;;;;;4.23;1.97;;;7.60;99.90;;;;;;4997915;28;20181;-91
2022/11/23 11:35:50;;;;;;;2.80;1.50;;;7.50;99.90;;;;;;4997719;28;20414;-87
2022/11/23 11:38:32;;;;;;;5.13;2.20;;;7.40;99.90;;;;;;4997218;28;20803;-88
2022/11/23 11:41:02;;;;;;;4.73;2.00;;;7.70;99.90;;;;;;4979792;28;20461;-90
2022/11/23 11:43:35;;;;;;;4.50;1.47;;;7.60;99.90;;;;;;4980091;28;20415;-88
2022/11/23 11:46:21;;;;;;;6.57;2.53;;;7.60;99.90;;;;;;4997361;28;20511;-88
2022/11/23 11:49:04;;;;;;;7.60;3.20;;;7.70;99.90;;;;;;4997647;28;20454;-88
2022/11/23 11:51:35;;;;;;;5.80;1.90;;;7.60;99.90;;;;;;4997012;28;20492;-89
2022/11/23 11:54:22;;;;;;;5.63;2.63;;;7.60;99.90;;;;;;4997278;28;20469;-89
2022/11/23 11:56:59;;;;;;;5.03;2.23;;;7.80;99.90;;;;;;5111431;23;20563;-85
2022/11/23 11:59:31;;;;;;;6.07;2.83;;;7.70;99.90;;;;;;4995348;28;20437;-84
2022/11/23 12:02:17;;;;;;;4.57;2.30;;;7.70;99.90;;;;;;4996587;28;20431;-85
2022/11/23 12:04:54;;;;;;;4.67;1.83;;;7.80;99.90;;;;;;4979392;28;20582;-86
2022/11/23 12:07:28;;;;;;;5.73;2.20;;;7.90;99.90;;;;;;4997037;28;20457;-89
2022/11/23 12:10:00;;;;;;;3.20;2.17;;;8.30;99.90;;;;;;4979832;28;20522;-88
2022/11/23 12:12:26;;;;;;;6.80;3.37;;;8.70;99.90;;;;;;4979797;28;20432;-88
2022/11/23 12:14:52;;;;;;;5.93;1.73;;;8.40;99.90;;;;;;4996795;28;20802;-87
2022/11/23 12:18:05;;;;;;;3.87;2.73;;;8.40;99.90;;;;;;4995859;28;20426;-87
2022/11/23 12:20:47;;;;;;;8.63;2.33;;;8.40;99.90;;;;;;4996966;28;20201;-87
2022/11/23 12:23:28;;;;;;;5.00;1.77;;;8.30;99.90;;;;;;4996608;28;20966;-86
2022/11/23 12:26:18;;;;;;;4.87;2.10;;;8.30;99.90;;;;;;4979365;28;20478;-88
2022/11/23 12:28:52;;;;;;;4.57;2.40;;;8.20;99.90;;;;;;4979109;28;20778;-88
2022/11/23 12:31:30;;;;;;;5.27;2.37;;;8.10;99.90;;;;;;4995179;28;20430;-87
2022/11/23 12:34:20;;;;;;;4.30;2.13;;;8.30;99.90;;;;;;4979251;28;20778;-88
2022/11/23 12:36:55;;;;;;;5.00;1.10;;;8.40;99.90;;;;;;4996579;28;20472;-86
2022/11/23 12:39:23;;;;;;;4.03;2.50;;;8.50;99.90;;;;;;4996927;28;20743;-88
2022/11/23 12:41:53;;;;;;;2.13;1.47;;;8.60;99.90;;;;;;4978771;28;20963;-89
2022/11/23 12:44:57;;;;;;;3.97;1.77;;;8.70;99.90;;;;;;4996248;28;20416;-87
2022/11/23 12:47:51;;;;;;;4.73;1.50;;;8.90;99.90;;;;;;4980096;28;20418;-88
2022/11/23 12:50:20;;;;;;;4.37;1.43;;;8.60;99.90;;;;;;4996613;28;20414;-88
2022/11/23 12:52:58;;;;;;;4.17;1.40;;;8.50;99.90;;;;;;4995927;28;21003;-88
2022/11/23 12:55:52;;;;;;;2.80;0.50;;;8.30;99.90;;;;;;4978818;28;20420;-87
2022/11/23 12:58:32;;;;;;;5.70;1.37;;;8.20;99.90;;;;;;4978434;28;20967;-88
2022/11/23 13:01:22;;;;;;;3.43;1.17;;;8.20;99.90;;;;;;4978719;28;20430;-87